EBBR/BRU METAR and TAF weather

Enter ICAO airport designator
Station Type Date Time Source
EBBR METAR 2019/05/19 06:20 UTC NOAA

EBBR 190620Z 32004KT 290V350 3700 -RA BR BKN036 13/12 Q1006 NOSIG


Station Type Date Time Source
EBBR Decoded METAR 2019/05/19 06:20 UTC NOAA

Bruxelles National, Belgium (EBBR) 50-54N 004-32E 58M
May 19, 2019 - 02:20 AM EDT / 2019.05.19 0620 UTC
Wind: from the NW (320 degrees) at 5 MPH (4 KT) (direction variable):0
Visibility: 2 mile(s):0
Sky conditions: mostly cloudy
Weather: light rain; mist
Temperature: 55 F (13 C)
Dew Point: 53 F (12 C)
Relative Humidity: 93%
Pressure (altimeter): 29.71 in. Hg (1006 hPa)
ob: EBBR 190620Z 32004KT 290V350 3700 -RA BR BKN036 13/12 Q1006 NOSIG
cycle: 6

Station Type Date Time Source
EBBR TAF 2019/05/19 06:27 UTC NOAA

TAF TAF EBBR 190510Z 1906/2012 34007KT 8000 FEW030TCU SCT045 PROB30
TEMPO 1906/1909 4000 SHRA
TEMPO 1913/1921 4000 SHRA PROB40
TEMPO 1915/1919 VRB15G25KT 2000 TSRAGS BKN006 BKN025CB
BECMG 1920/1922 3000 BR BKN005 PROB40 2000/2008 1200 BR BKN003
BECMG 2010/2012 6000 NSW BKN008

Example: see airport list